Time;durP1;ratioP1;P1;durP2;ratioP2;P2;SDS_P1;SDS_P2;PMS_P1;PMS_P2;Temp;Humidity;BMP_temperature;BMP_pressure;BME280_temperature;BME280_humidity;BME280_pressure;Samples;Min_cycle;Max_cycle;Signal;HPM_P1;HPM_P2
2021/04/18 00:00:41;;;;;;;29.25;15.27;;;;;;;28.30;18.12;98391.88;5044157;28;20052;-88
2021/04/18 00:03:07;;;;;;;28.30;14.85;;;;;;;28.35;18.08;98391.28;5041296;28;20033;-88
2021/04/18 00:05:33;;;;;;;32.20;16.02;;;;;;;28.37;17.90;98388.81;5046662;28;21353;-88
2021/04/18 00:08:02;;;;;;;28.77;14.50;;;;;;;28.38;18.04;98381.13;5047478;28;20033;-87
2021/04/18 00:10:31;;;;;;;32.15;16.10;;;;;;;28.40;18.07;98393.50;5045086;28;20037;-88
2021/04/18 00:12:58;;;;;;;33.88;16.65;;;;;;;28.35;18.05;98384.84;5048420;28;20025;-88
2021/04/18 00:15:25;;;;;;;31.00;14.85;;;;;;;28.32;17.85;98399.88;5049201;28;20033;-87
2021/04/18 00:17:51;;;;;;;32.08;14.57;;;;;;;28.34;18.10;98375.56;5051189;28;20037;-87
2021/04/18 00:20:19;;;;;;;26.85;13.32;;;;;;;28.42;17.67;98382.56;5043463;28;20056;-87
2021/04/18 00:22:45;;;;;;;24.90;13.18;;;;;;;28.45;17.93;98383.69;5048949;28;20044;-87
2021/04/18 00:25:12;;;;;;;24.85;12.80;;;;;;;28.45;18.06;98381.63;5048579;28;20475;-87
2021/04/18 00:27:40;;;;;;;30.50;14.65;;;;;;;28.41;18.04;98383.81;5051911;28;20029;-87
2021/04/18 00:30:09;;;;;;;30.85;14.73;;;;;;;28.18;18.31;98387.03;5051029;28;20490;-87
2021/04/18 00:32:35;;;;;;;30.10;15.07;;;;;;;27.76;18.52;98389.19;5046640;28;20060;-87
2021/04/18 00:35:01;;;;;;;28.63;13.05;;;;;;;27.50;18.74;98387.59;5047430;28;20040;-87
2021/04/18 00:37:27;;;;;;;28.67;11.80;;;;;;;27.61;18.59;98381.63;5049432;28;20032;-86
2021/04/18 00:39:53;;;;;;;32.20;15.40;;;;;;;27.66;18.66;98384.66;5039491;28;20117;-87
2021/04/18 00:42:19;;;;;;;29.83;14.60;;;;;;;27.67;18.42;98382.66;5046623;28;20546;-87
2021/04/18 00:44:45;;;;;;;33.08;15.90;;;;;;;27.69;18.63;98378.13;5045375;28;20047;-87
2021/04/18 00:47:12;;;;;;;30.10;14.60;;;;;;;27.78;18.32;98388.72;5044617;28;20032;-87
2021/04/18 00:49:38;;;;;;;33.58;15.90;;;;;;;27.66;18.51;98381.84;5041495;28;20104;-86
2021/04/18 00:52:06;;;;;;;37.83;17.95;;;;;;;27.59;18.42;98379.25;5044349;28;20532;-87
2021/04/18 00:54:32;;;;;;;33.63;16.05;;;;;;;27.68;18.54;98372.94;5049244;28;20072;-86
2021/04/18 00:56:58;;;;;;;32.13;15.75;;;;;;;27.75;18.48;98376.31;5038862;28;20077;-86
2021/04/18 00:59:24;;;;;;;33.72;16.15;;;;;;;27.82;18.23;98376.09;5045021;28;20453;-86
2021/04/18 01:01:50;;;;;;;30.10;14.30;;;;;;;27.69;18.38;98378.13;5045515;28;20032;-86
2021/04/18 01:04:16;;;;;;;33.90;16.15;;;;;;;27.79;18.29;98379.84;5046336;28;20036;-86
2021/04/18 01:06:42;;;;;;;29.58;14.30;;;;;;;27.88;18.33;98377.13;5045538;28;20036;-86
2021/04/18 01:09:09;;;;;;;30.60;15.35;;;;;;;27.87;18.37;98377.53;5042549;28;20029;-86
2021/04/18 01:11:35;;;;;;;26.83;13.38;;;;;;;27.94;18.21;98369.63;5045223;28;20511;-86
2021/04/18 01:14:01;;;;;;;29.95;14.10;;;;;;;28.02;18.14;98378.69;5043878;28;20033;-86
2021/04/18 01:16:27;;;;;;;31.35;14.70;;;;;;;28.04;18.09;98368.53;5043952;28;20037;-86
2021/04/18 01:18:53;;;;;;;27.73;13.85;;;;;;;28.13;18.24;98370.66;5040448;28;20033;-86
2021/04/18 01:21:21;;;;;;;26.75;13.18;;;;;;;28.17;17.88;98376.97;5044175;28;20052;-86
2021/04/18 01:23:47;;;;;;;25.02;12.85;;;;;;;28.22;17.84;98375.59;5043874;28;20029;-87
2021/04/18 01:26:14;;;;;;;31.25;14.25;;;;;;;28.26;18.06;98371.44;5045598;28;20037;-87
2021/04/18 01:28:41;;;;;;;32.10;15.77;;;;;;;28.28;17.91;98368.16;5042775;28;20041;-87
2021/04/18 01:31:07;;;;;;;29.02;14.20;;;;;;;28.25;17.87;98366.22;5042424;28;20090;-87
2021/04/18 01:33:34;;;;;;;26.05;12.70;;;;;;;28.27;17.98;98367.34;5041642;28;20037;-87
2021/04/18 01:36:03;;;;;;;24.42;13.43;;;;;;;28.30;17.85;98376.94;5041673;28;20044;-87
2021/04/18 01:38:31;;;;;;;28.13;13.38;;;;;;;28.28;18.03;98368.94;5037507;28;20033;-87
2021/04/18 01:41:00;;;;;;;28.67;13.27;;;;;;;28.27;17.73;98372.19;5041124;28;20029;-87
2021/04/18 01:43:26;;;;;;;26.70;12.52;;;;;;;28.25;17.91;98369.84;5051207;28;20033;-87
2021/04/18 01:45:53;;;;;;;27.77;13.40;;;;;;;28.22;17.85;98369.94;5052526;28;20021;-87
2021/04/18 01:48:19;;;;;;;28.10;13.57;;;;;;;28.21;17.97;98369.19;5051240;28;20037;-86
2021/04/18 01:50:51;;;;;;;30.20;14.05;;;;;;;28.08;18.03;98371.22;5049183;28;20513;-86
2021/04/18 01:53:18;;;;;;;29.23;13.68;;;;;;;28.15;18.03;98373.00;5045718;28;20029;-86
2021/04/18 01:55:45;;;;;;;25.80;12.98;;;;;;;28.22;17.75;98367.91;5048217;28;20040;-85
2021/04/18 01:58:11;;;;;;;25.15;12.68;;;;;;;28.02;17.90;98359.75;5047194;28;20037;-86
2021/04/18 02:00:37;;;;;;;22.95;11.65;;;;;;;28.12;18.10;98366.28;5043350;28;20486;-86
2021/04/18 02:03:03;;;;;;;26.13;12.90;;;;;;;28.16;18.02;98364.09;5052670;28;20044;-86
2021/04/18 02:05:31;;;;;;;29.42;15.10;;;;;;;28.25;18.11;98366.22;5048945;28;20445;-86
2021/04/18 02:07:58;;;;;;;28.30;13.52;;;;;;;28.00;18.10;98372.72;5050204;28;20040;-86
2021/04/18 02:10:24;;;;;;;24.00;11.70;;;;;;;27.75;18.19;98361.44;5047770;28;20061;-86
2021/04/18 02:12:51;;;;;;;26.83;13.32;;;;;;;27.58;18.45;98366.41;5048751;28;20040;-86
2021/04/18 02:15:18;;;;;;;27.30;13.00;;;;;;;27.68;18.54;98365.25;5041041;28;20024;-86
2021/04/18 02:17:44;;;;;;;24.95;12.95;;;;;;;27.91;18.28;98364.91;5048982;28;20458;-87
2021/04/18 02:20:11;;;;;;;24.98;11.98;;;;;;;28.08;18.02;98360.72;5043870;28;20037;-87
2021/04/18 02:22:37;;;;;;;25.05;12.45;;;;;;;28.21;17.87;98357.09;5051428;28;20371;-88
2021/04/18 02:25:04;;;;;;;26.05;13.65;;;;;;;28.18;17.86;98352.34;5046187;28;20079;-86
2021/04/18 02:27:30;;;;;;;30.90;14.38;;;;;;;27.98;17.88;98344.91;5049531;28;20474;-86
2021/04/18 02:29:57;;;;;;;26.60;12.40;;;;;;;28.06;17.88;98346.28;5045015;28;20033;-87
2021/04/18 02:32:23;;;;;;;28.05;13.93;;;;;;;27.87;18.27;98338.03;5040481;28;20422;-87
2021/04/18 02:34:50;;;;;;;28.35;14.20;;;;;;;27.78;18.19;98354.88;5050345;28;20113;-87
2021/04/18 02:37:17;;;;;;;25.52;12.32;;;;;;;27.91;18.37;98345.13;5045513;28;20041;-87
2021/04/18 02:39:43;;;;;;;24.27;12.20;;;;;;;28.08;18.19;98351.47;5048383;28;20029;-86
2021/04/18 02:42:09;;;;;;;26.70;12.05;;;;;;;28.20;18.19;98349.84;5050166;28;20033;-86
2021/04/18 02:44:36;;;;;;;23.92;12.05;;;;;;;28.27;17.85;98349.63;5047272;28;20052;-87
2021/04/18 02:47:03;;;;;;;25.13;12.57;;;;;;;28.33;18.01;98342.94;5048711;28;20040;-86
2021/04/18 02:49:29;;;;;;;26.70;13.27;;;;;;;28.40;17.76;98336.25;5046789;28;20032;-87
2021/04/18 02:51:55;;;;;;;25.23;12.65;;;;;;;28.33;17.91;98334.47;5051850;28;20398;-86
2021/04/18 02:54:22;;;;;;;26.17;12.20;;;;;;;28.15;18.20;98339.13;5047464;28;20041;-87
2021/04/18 02:56:48;;;;;;;25.23;12.65;;;;;;;28.19;18.17;98337.00;5041567;28;20482;-87
2021/04/18 02:59:14;;;;;;;25.30;11.68;;;;;;;28.25;18.12;98335.97;5046958;28;20069;-87
2021/04/18 03:01:40;;;;;;;26.08;11.80;;;;;;;28.31;18.02;98325.66;5039752;28;20092;-87
2021/04/18 03:04:07;;;;;;;21.13;10.10;;;;;;;28.38;17.86;98338.75;5048993;28;20063;-87
2021/04/18 03:06:34;;;;;;;26.85;12.52;;;;;;;28.35;17.98;98323.50;5047401;28;20039;-86
2021/04/18 03:09:00;;;;;;;23.98;12.73;;;;;;;28.37;17.90;98323.84;5049491;28;20037;-86
2021/04/18 03:11:26;;;;;;;23.30;10.80;;;;;;;28.39;17.83;98323.38;5050207;28;20048;-86
2021/04/18 03:13:52;;;;;;;22.63;11.85;;;;;;;28.42;17.95;98316.81;5045555;28;20024;-86
2021/04/18 03:16:19;;;;;;;24.77;12.55;;;;;;;28.44;17.88;98322.78;5046849;28;20044;-87
2021/04/18 03:18:45;;;;;;;25.10;11.30;;;;;;;28.44;17.85;98319.97;5044431;28;20021;-87
2021/04/18 03:21:11;;;;;;;22.95;10.88;;;;;;;28.44;17.79;98315.09;5041444;28;20489;-86
2021/04/18 03:23:37;;;;;;;19.20;10.45;;;;;;;28.46;17.70;98312.59;5041914;28;20104;-86
2021/04/18 03:26:04;;;;;;;23.45;11.20;;;;;;;28.47;17.75;98308.53;5048230;28;20517;-86
2021/04/18 03:28:30;;;;;;;20.20;10.40;;;;;;;28.18;18.07;98322.09;5047260;28;20048;-87
2021/04/18 03:30:57;;;;;;;22.83;11.73;;;;;;;27.97;18.05;98309.47;5047752;28;20120;-86
2021/04/18 03:33:23;;;;;;;26.17;11.48;;;;;;;27.46;18.41;98316.41;5044145;28;20494;-87
2021/04/18 03:35:50;;;;;;;20.63;10.57;;;;;;;27.04;18.94;98321.31;5049026;28;20036;-86
2021/04/18 03:38:16;;;;;;;20.88;10.15;;;;;;;27.10;18.92;98321.53;5048786;28;20040;-87
2021/04/18 03:40:42;;;;;;;26.75;12.63;;;;;;;27.41;18.82;98322.63;5050013;28;20041;-86
2021/04/18 03:43:09;;;;;;;23.88;11.98;;;;;;;27.70;18.37;98320.44;5045604;28;20372;-86
2021/04/18 03:45:36;;;;;;;30.45;13.90;;;;;;;27.88;18.28;98311.41;5048466;28;20403;-87
2021/04/18 03:48:02;;;;;;;27.83;13.27;;;;;;;27.83;18.31;98314.78;5044897;28;20486;-86
2021/04/18 03:50:28;;;;;;;24.83;11.80;;;;;;;27.49;18.69;98317.53;5049806;28;20044;-87
2021/04/18 03:52:55;;;;;;;25.85;11.43;;;;;;;27.14;19.10;98323.00;5054332;28;20056;-87
2021/04/18 03:55:25;;;;;;;24.05;11.65;;;;;;;26.99;19.20;98324.69;5048070;28;20068;-85
2021/04/18 03:57:52;;;;;;;24.05;11.73;;;;;;;27.16;19.11;98328.22;5049644;28;20037;-85
2021/04/18 04:00:19;;;;;;;19.98;9.98;;;;;;;27.51;18.49;98315.06;5044872;28;20137;-85
2021/04/18 04:02:45;;;;;;;23.23;11.77;;;;;;;27.60;18.80;98326.44;5053781;28;20390;-85
2021/04/18 04:05:11;;;;;;;25.67;11.75;;;;;;;27.78;18.30;98321.00;5045399;28;20056;-86
2021/04/18 04:07:37;;;;;;;21.10;10.82;;;;;;;27.47;18.71;98328.50;5052440;28;20084;-86
2021/04/18 04:10:07;;;;;;;21.70;11.02;;;;;;;27.11;19.20;98331.59;5051769;28;20040;-86
2021/04/18 04:12:34;;;;;;;26.63;12.97;;;;;;;26.84;19.56;98329.16;5047018;28;20039;-86
2021/04/18 04:15:00;;;;;;;24.73;12.50;;;;;;;27.06;19.41;98332.94;5047626;28;20116;-86
2021/04/18 04:17:26;;;;;;;24.27;11.30;;;;;;;27.26;19.19;98336.31;5048021;28;20034;-86
2021/04/18 04:19:52;;;;;;;24.40;11.23;;;;;;;27.32;18.96;98334.53;5051476;28;20491;-86
2021/04/18 04:22:19;;;;;;;24.50;11.45;;;;;;;27.34;18.86;98334.88;5051562;28;20470;-86
2021/04/18 04:24:45;;;;;;;19.63;8.95;;;;;;;27.43;18.98;98322.94;5049476;28;20510;-86
2021/04/18 04:27:11;;;;;;;23.13;10.80;;;;;;;27.40;19.02;98333.09;5047288;28;20506;-87
2021/04/18 04:29:38;;;;;;;21.50;10.57;;;;;;;27.42;18.85;98331.88;5050261;28;20368;-88
2021/04/18 04:32:04;;;;;;;23.52;11.38;;;;;;;27.49;18.82;98328.81;5043480;28;20044;-88
2021/04/18 04:34:30;;;;;;;19.25;9.65;;;;;;;27.46;18.98;98332.53;5048607;28;20056;-86
2021/04/18 04:36:56;;;;;;;21.80;10.27;;;;;;;27.47;19.15;98334.13;5043162;28;20094;-86
2021/04/18 04:39:22;;;;;;;21.48;10.35;;;;;;;27.48;19.04;98330.84;5052096;28;20547;-86
2021/04/18 04:41:48;;;;;;;23.23;10.95;;;;;;;27.45;19.04;98326.09;5047395;28;20035;-85
2021/04/18 04:44:17;;;;;;;26.55;11.60;;;;;;;27.60;18.68;98324.41;5046339;28;20065;-86
2021/04/18 04:46:46;;;;;;;22.20;9.93;;;;;;;27.40;19.02;98329.47;5052147;28;20104;-86
2021/04/18 04:49:13;;;;;;;24.58;10.45;;;;;;;27.45;19.00;98325.31;5052346;28;20036;-86
2021/04/18 04:51:39;;;;;;;22.30;10.45;;;;;;;27.50;18.86;98327.56;5048640;28;20106;-86
2021/04/18 04:54:06;;;;;;;21.77;10.05;;;;;;;27.49;19.18;98323.19;5047760;28;20029;-86
2021/04/18 04:56:32;;;;;;;21.23;9.90;;;;;;;27.43;18.85;98325.78;5052281;28;20400;-86
2021/04/18 04:58:59;;;;;;;20.35;9.75;;;;;;;27.47;19.21;98320.03;5049129;28;20028;-88
2021/04/18 05:01:25;;;;;;;22.48;9.75;;;;;;;27.26;19.19;98327.06;5050963;28;20040;-88
2021/04/18 05:03:51;;;;;;;25.40;10.90;;;;;;;27.25;19.50;98326.31;5046531;28;20167;-87
2021/04/18 05:06:17;;;;;;;25.05;11.38;;;;;;;26.93;19.45;98318.03;5050133;28;20490;-88
2021/04/18 05:08:43;;;;;;;22.75;10.55;;;;;;;26.67;20.01;98325.59;5052428;28;20447;-87
2021/04/18 05:11:09;;;;;;;27.10;11.52;;;;;;;26.77;20.14;98323.72;5049675;28;20032;-88
2021/04/18 05:13:35;;;;;;;23.77;10.80;;;;;;;26.93;19.93;98326.50;5044699;28;20083;-88
2021/04/18 05:16:02;;;;;;;21.45;10.07;;;;;;;27.14;19.89;98327.88;5044759;28;20048;-88
2021/04/18 05:18:28;;;;;;;23.02;10.48;;;;;;;27.05;19.50;98330.56;5049895;28;20025;-86
2021/04/18 05:20:54;;;;;;;19.25;9.90;;;;;;;27.08;19.96;98333.28;5043229;28;20079;-86
2021/04/18 05:23:20;;;;;;;21.42;10.85;;;;;;;27.08;19.57;98335.28;5050861;28;20036;-87
2021/04/18 05:25:46;;;;;;;19.35;9.05;;;;;;;27.27;19.90;98331.47;5050000;28;20383;-86
2021/04/18 05:28:12;;;;;;;20.40;9.80;;;;;;;27.26;19.91;98330.69;5047907;28;20514;-85
2021/04/18 05:30:38;;;;;;;26.00;14.15;;;;;;;25.63;21.34;98330.72;5051534;28;20036;-87
2021/04/18 05:33:05;;;;;;;20.98;11.90;;;;;;;25.97;21.09;98328.28;5050721;28;20041;-86
2021/04/18 05:35:31;;;;;;;19.23;9.95;;;;;;;26.48;21.05;98326.53;5045364;28;20036;-85
2021/04/18 05:37:58;;;;;;;21.05;10.38;;;;;;;26.87;20.41;98335.91;5046543;28;20099;-86
2021/04/18 05:40:25;;;;;;;17.38;9.68;;;;;;;27.13;20.32;98334.75;5044334;28;20057;-86
2021/04/18 05:42:51;;;;;;;17.45;8.88;;;;;;;27.03;20.25;98339.47;5047263;28;20037;-86
2021/04/18 05:45:17;;;;;;;14.10;7.72;;;;;;;27.28;20.02;98333.06;5050333;28;20029;-87
2021/04/18 05:47:43;;;;;;;17.83;9.45;;;;;;;26.49;20.63;98341.41;5050729;28;20087;-87
2021/04/18 05:50:09;;;;;;;15.65;8.95;;;;;;;26.36;21.41;98338.53;5040377;28;20454;-90
2021/04/18 05:52:36;;;;;;;22.67;12.57;;;;;;;25.67;21.62;98336.28;5047237;28;20160;-88
2021/04/18 05:55:02;;;;;;;15.43;9.10;;;;;;;25.37;22.12;98335.34;5048459;28;20025;-89
2021/04/18 05:57:28;;;;;;;14.38;8.38;;;;;;;26.02;21.09;98335.41;5046849;28;20469;-88
2021/04/18 05:59:54;;;;;;;22.05;10.82;;;;;;;24.45;23.02;98342.09;5049597;28;20036;-89
2021/04/18 06:02:20;;;;;;;15.43;8.25;;;;;;;24.85;22.74;98342.13;5040691;28;20118;-89
2021/04/18 06:04:46;;;;;;;16.65;11.05;;;;;;;24.52;22.80;98347.56;5051604;28;20029;-87
2021/04/18 06:07:12;;;;;;;16.98;9.80;;;;;;;25.14;22.12;98343.09;5049562;28;20037;-88
2021/04/18 06:09:38;;;;;;;21.27;12.02;;;;;;;23.66;23.97;98352.28;5042107;28;20079;-92
2021/04/18 06:12:04;;;;;;;18.83;11.23;;;;;;;24.33;23.87;98345.53;5036370;28;20029;-91
2021/04/18 06:14:30;;;;;;;18.70;9.85;;;;;;;23.96;24.11;98352.19;5045594;28;20487;-88
2021/04/18 06:16:56;;;;;;;14.65;8.25;;;;;;;24.55;23.19;98352.31;5044504;28;20025;-88
2021/04/18 06:19:23;;;;;;;17.38;8.88;;;;;;;25.01;22.58;98357.03;5060485;28;20059;-89
2021/04/18 06:21:49;;;;;;;10.23;6.68;;;;;;;25.81;21.55;98350.78;5043911;28;20041;-89
2021/04/18 06:24:15;;;;;;;11.85;7.45;;;;;;;26.56;21.03;98355.28;5038342;28;20128;-90
2021/04/18 06:26:41;;;;;;;12.45;7.03;;;;;;;26.55;20.76;98350.91;5047477;28;20065;-89
2021/04/18 06:29:07;;;;;;;13.45;7.45;;;;;;;26.87;20.63;98361.28;5051779;28;20061;-89
2021/04/18 06:31:33;;;;;;;12.52;7.28;;;;;;;26.86;20.38;98360.50;5041681;28;20049;-89
2021/04/18 06:33:59;;;;;;;14.05;6.93;;;;;;;26.57;20.29;98354.84;5041661;28;20124;-90
2021/04/18 06:36:25;;;;;;;16.05;9.32;;;;;;;25.26;21.51;98362.09;5038267;28;20604;-89
2021/04/18 06:38:51;;;;;;;15.77;8.05;;;;;;;25.50;21.58;98354.38;5042313;28;20132;-87
2021/04/18 06:41:22;;;;;;;14.82;8.45;;;;;;;25.87;21.13;98356.69;5047926;28;20037;-88
2021/04/18 06:43:50;;;;;;;13.60;7.75;;;;;;;25.65;21.39;98356.41;5048734;28;20033;-87
2021/04/18 06:46:18;;;;;;;15.23;8.68;;;;;;;25.62;21.57;98354.47;5044373;28;20517;-88
2021/04/18 06:48:48;;;;;;;11.32;6.85;;;;;;;26.19;21.10;98350.25;5050031;28;20560;-90
2021/04/18 06:51:17;;;;;;;20.65;12.23;;;;;;;24.60;22.44;98360.22;5043908;28;20040;-88
2021/04/18 06:53:43;;;;;;;14.55;8.15;;;;;;;25.78;21.19;98356.50;5050979;28;20028;-88
2021/04/18 06:56:09;;;;;;;18.25;9.73;;;;;;;25.30;22.03;98360.78;5045827;28;20042;-88
2021/04/18 06:58:35;;;;;;;12.80;6.40;;;;;;;26.13;20.99;98361.28;5049723;28;20029;-87
2021/04/18 07:01:02;;;;;;;11.98;6.63;;;;;;;26.60;20.69;98356.78;5043007;28;20490;-88
2021/04/18 07:03:29;;;;;;;17.25;9.68;;;;;;;25.63;21.16;98358.84;5045083;28;20071;-88
2021/04/18 07:05:57;;;;;;;12.80;7.70;;;;;;;26.14;20.91;98367.69;5048879;28;20029;-87
2021/04/18 07:08:30;;;;;;;19.52;10.68;;;;;;;24.67;22.28;98367.72;5048096;28;20497;-87
2021/04/18 07:11:15;;;;;;;12.48;7.22;;;;;;;25.31;22.22;98370.81;5048893;28;20041;-86
2021/04/18 07:13:43;;;;;;;12.90;7.35;;;;;;;25.61;21.51;98364.13;5047631;28;20334;-88
2021/04/18 07:16:28;;;;;;;12.70;6.90;;;;;;;25.08;21.99;98370.13;5051001;28;20040;-89
2021/04/18 07:18:55;;;;;;;17.23;9.52;;;;;;;24.34;23.08;98377.19;5043336;28;20029;-87
2021/04/18 07:21:22;;;;;;;15.18;8.25;;;;;;;22.74;25.48;98379.94;5051111;28;20030;-88
2021/04/18 07:23:48;;;;;;;17.63;9.52;;;;;;;23.17;25.34;98389.41;5044849;28;20091;-87
2021/04/18 07:26:24;;;;;;;17.42;8.77;;;;;;;23.11;24.78;98385.47;5043554;28;20048;-87
2021/04/18 07:28:51;;;;;;;22.88;12.05;;;;;;;22.35;25.76;98383.94;5038610;28;20494;-87
2021/04/18 07:31:33;;;;;;;18.88;10.38;;;;;;;22.03;25.79;98386.25;5041394;28;20033;-85
2021/04/18 07:34:10;;;;;;;18.50;9.48;;;;;;;22.20;26.51;98385.28;5047200;28;20037;-87
2021/04/18 07:36:38;;;;;;;20.55;10.95;;;;;;;22.22;26.37;98387.69;5038748;28;20037;-89
2021/04/18 07:39:08;;;;;;;16.85;8.80;;;;;;;23.64;23.99;98370.75;5047715;28;20048;-89
2021/04/18 07:41:38;;;;;;;16.95;8.63;;;;;;;24.56;23.37;98369.94;5060943;28;20063;-89
2021/04/18 07:44:08;;;;;;;16.67;7.93;;;;;;;25.40;22.06;98365.38;5043163;28;20029;-89
2021/04/18 07:46:34;;;;;;;14.10;7.65;;;;;;;24.90;22.56;98378.91;5050597;28;20033;-88
2021/04/18 07:49:01;;;;;;;13.05;6.97;;;;;;;25.16;22.57;98380.78;5044469;28;20108;-89
2021/04/18 07:51:28;;;;;;;13.82;7.28;;;;;;;25.45;21.89;98383.00;5043729;28;20048;-88
2021/04/18 07:53:54;;;;;;;12.93;7.25;;;;;;;25.15;22.11;98375.59;5047529;28;20025;-88
2021/04/18 07:56:21;;;;;;;15.10;7.78;;;;;;;25.07;22.11;98372.16;5045928;28;20048;-87
2021/04/18 07:58:47;;;;;;;10.93;6.32;;;;;;;25.35;22.21;98368.72;5048092;28;20037;-87
2021/04/18 08:01:13;;;;;;;16.42;8.45;;;;;;;25.16;22.55;98368.75;5036902;28;20037;-92
2021/04/18 08:03:42;;;;;;;13.02;7.30;;;;;;;25.71;21.73;98370.72;5043412;28;20475;-88
2021/04/18 08:06:09;;;;;;;15.75;9.15;;;;;;;25.04;22.60;98373.00;5051438;28;20101;-88
2021/04/18 08:08:50;;;;;;;12.63;7.10;;;;;;;25.61;22.24;98366.94;5048098;28;20155;-89
2021/04/18 08:11:18;;;;;;;15.45;9.25;;;;;;;25.97;22.04;98366.88;5048210;28;20043;-91
2021/04/18 08:13:48;;;;;;;17.73;8.95;;;;;;;25.23;22.92;98365.78;5050288;28;20033;-89
2021/04/18 08:16:24;;;;;;;14.25;8.18;;;;;;;25.61;22.27;98368.97;5045691;28;20559;-87
2021/04/18 08:18:50;;;;;;;14.57;8.05;;;;;;;26.23;21.08;98362.22;5048457;28;20075;-87
2021/04/18 08:21:40;;;;;;;11.52;6.90;;;;;;;26.49;21.00;98369.59;5048222;28;20510;-87
2021/04/18 08:24:23;;;;;;;13.60;7.32;;;;;;;26.61;21.55;98372.44;5042898;28;20057;-88
2021/04/18 08:27:00;;;;;;;9.93;6.05;;;;;;;26.24;21.56;98363.78;5044742;28;20056;-89
2021/04/18 08:29:29;;;;;;;13.20;8.43;;;;;;;24.66;23.47;98363.34;5043822;28;20037;-88
2021/04/18 08:32:05;;;;;;;9.48;5.63;;;;;;;26.07;22.15;98360.97;5047549;28;20079;-88
2021/04/18 08:34:33;;;;;;;9.02;5.70;;;;;;;26.59;21.99;98360.81;5046713;28;20618;-88
2021/04/18 08:37:01;;;;;;;9.95;5.78;;;;;;;27.77;20.28;98356.91;5046286;28;20509;-88
2021/04/18 08:39:28;;;;;;;9.25;5.13;;;;;;;27.92;20.46;98351.56;5051150;28;20045;-88
2021/04/18 08:41:57;;;;;;;9.05;5.30;;;;;;;28.00;20.01;98348.13;5042887;28;20029;-86
2021/04/18 08:44:26;;;;;;;13.52;8.32;;;;;;;26.57;20.56;98349.22;5050126;28;20033;-88
2021/04/18 08:47:01;;;;;;;10.55;6.47;;;;;;;25.43;23.94;98349.66;5042923;28;20048;-85
2021/04/18 08:49:43;;;;;;;10.52;6.70;;;;;;;26.63;21.92;98349.44;5046069;28;20029;-85
2021/04/18 08:52:21;;;;;;;7.10;4.38;;;;;;;27.89;20.61;98341.97;5051276;28;20036;-87
2021/04/18 08:54:48;;;;;;;7.15;4.43;;;;;;;28.00;18.70;98338.84;5047569;28;20033;-90
2021/04/18 08:57:20;;;;;;;7.10;4.50;;;;;;;28.15;18.96;98344.78;5045763;28;20049;-90
2021/04/18 08:59:54;;;;;;;9.00;5.47;;;;;;;27.98;19.53;98344.13;5047167;28;20121;-90
2021/04/18 09:02:21;;;;;;;10.63;6.65;;;;;;;24.41;22.60;98346.97;5067004;28;20033;-90
2021/04/18 09:04:50;;;;;;;12.63;6.75;;;;;;;24.42;22.71;98345.75;5051523;28;20445;-88
2021/04/18 09:07:19;;;;;;;7.40;4.47;;;;;;;26.02;21.52;98333.34;5049766;28;20033;-89
2021/04/18 09:09:49;;;;;;;8.25;4.00;;;;;;;26.77;20.36;98343.44;5050868;28;20131;-88
2021/04/18 09:12:17;;;;;;;6.47;4.72;;;;;;;27.00;20.22;98339.56;5049220;28;20112;-86
2021/04/18 09:14:45;;;;;;;6.15;4.22;;;;;;;26.85;18.99;98344.03;5044352;28;20084;-86
2021/04/18 09:17:26;;;;;;;6.85;4.07;;;;;;;26.89;20.54;98339.06;5046145;28;20029;-86
2021/04/18 09:19:55;;;;;;;5.80;4.13;;;;;;;27.06;20.14;98347.03;5065672;28;20759;-87
2021/04/18 09:22:30;;;;;;;8.80;5.22;;;;;;;25.53;20.38;98342.25;5042910;28;20103;-85
2021/04/18 09:25:00;;;;;;;6.25;4.95;;;;;;;25.06;22.08;98338.88;5044512;28;20393;-85
2021/04/18 09:27:34;;;;;;;6.68;4.57;;;;;;;25.44;22.14;98328.78;5052717;28;20029;-86
2021/04/18 09:30:26;;;;;;;6.07;4.22;;;;;;;26.55;21.01;98325.53;5034772;28;20029;-86
2021/04/18 09:32:55;;;;;;;8.43;4.40;;;;;;;26.89;20.08;98325.78;5044684;28;20039;-86
2021/04/18 09:35:24;;;;;;;8.45;5.78;;;;;;;24.43;22.31;98326.91;5040877;28;20044;-86
2021/04/18 09:37:57;;;;;;;10.25;6.07;;;;;;;23.80;23.14;98324.03;5049437;28;20444;-86
2021/04/18 09:40:26;;;;;;;5.93;4.15;;;;;;;24.20;23.25;98330.53;5043982;28;20103;-86
2021/04/18 09:42:53;;;;;;;7.22;4.68;;;;;;;25.74;21.30;98328.44;5038223;28;20099;-86
2021/04/18 09:45:25;;;;;;;11.13;7.00;;;;;;;23.36;23.04;98325.09;5044800;28;20541;-86
2021/04/18 09:48:16;;;;;;;5.50;3.78;;;;;;;23.98;24.51;98327.31;5037090;28;20029;-86
2021/04/18 09:50:42;;;;;;;5.87;3.87;;;;;;;25.71;21.21;98334.16;5050330;28;20501;-86
2021/04/18 09:53:22;;;;;;;10.77;6.20;;;;;;;25.21;21.29;98334.50;5038291;28;20021;-86
2021/04/18 09:56:04;;;;;;;9.55;6.65;;;;;;;24.03;21.92;98332.44;5049702;28;20029;-85
2021/04/18 09:58:39;;;;;;;5.95;3.83;;;;;;;26.12;20.67;98331.53;5047841;28;20087;-86
2021/04/18 10:01:29;;;;;;;6.63;4.18;;;;;;;26.90;19.47;98333.00;5039271;28;20038;-86
2021/04/18 10:03:55;;;;;;;6.78;4.15;;;;;;;27.82;19.44;98328.09;5050602;28;20029;-86
2021/04/18 10:06:23;;;;;;;6.80;4.15;;;;;;;28.20;19.24;98325.25;5040955;28;20036;-86
2021/04/18 10:09:03;;;;;;;7.55;4.55;;;;;;;28.29;18.47;98322.50;5051414;28;20025;-86
2021/04/18 10:11:29;;;;;;;7.97;5.38;;;;;;;27.99;18.33;98323.94;5052685;28;20044;-86
2021/04/18 10:13:57;;;;;;;6.07;3.65;;;;;;;28.63;18.24;98331.00;5048108;28;20036;-86
2021/04/18 10:16:31;;;;;;;9.80;6.88;;;;;;;27.18;19.98;98337.00;5049731;28;20033;-86
2021/04/18 10:19:11;;;;;;;8.88;6.30;;;;;;;25.23;20.70;98332.03;5040685;28;20032;-86
2021/04/18 10:21:38;;;;;;;6.40;4.32;;;;;;;27.25;19.65;98326.31;5042080;28;20040;-85
2021/04/18 10:24:36;;;;;;;5.53;4.07;;;;;;;28.41;18.99;98320.88;5046111;28;20506;-85
2021/04/18 10:27:04;;;;;;;9.43;5.95;;;;;;;27.88;18.56;98323.50;5038114;28;20037;-86
2021/04/18 10:29:31;;;;;;;6.25;3.83;;;;;;;28.38;19.33;98325.41;5045427;28;20033;-86
2021/04/18 10:31:57;;;;;;;7.72;4.57;;;;;;;29.08;18.09;98309.94;5037838;28;20037;-86
2021/04/18 10:34:24;;;;;;;5.82;3.90;;;;;;;29.80;18.58;98318.75;5049004;28;20029;-86
2021/04/18 10:36:50;;;;;;;7.53;4.53;;;;;;;30.09;17.36;98322.00;5052291;28;20107;-87
2021/04/18 10:39:17;;;;;;;4.90;3.35;;;;;;;30.23;17.14;98314.91;5052630;28;20072;-86
2021/04/18 10:41:44;;;;;;;6.40;4.57;;;;;;;29.64;18.42;98321.81;5044145;28;20032;-85
2021/04/18 10:44:17;;;;;;;8.70;5.55;;;;;;;26.95;20.03;98334.47;5035032;28;20112;-85
2021/04/18 10:47:08;;;;;;;6.38;4.57;;;;;;;28.17;19.08;98317.66;5038590;28;20512;-85
2021/04/18 10:49:34;;;;;;;7.47;4.47;;;;;;;28.22;19.10;98316.31;5037995;28;20028;-85
2021/04/18 10:52:00;;;;;;;6.03;3.55;;;;;;;28.62;18.24;98322.97;5046062;28;20017;-85
2021/04/18 10:54:26;;;;;;;6.35;3.97;;;;;;;29.36;18.47;98314.47;5043638;28;20497;-85
2021/04/18 10:56:54;;;;;;;5.85;3.63;;;;;;;29.49;17.90;98318.00;5034786;28;20049;-85
2021/04/18 10:59:21;;;;;;;6.07;4.20;;;;;;;29.47;18.39;98319.72;5040231;28;20517;-85
2021/04/18 11:01:48;;;;;;;5.43;3.92;;;;;;;29.25;17.52;98312.09;5044256;28;20104;-85
2021/04/18 11:04:16;;;;;;;7.35;5.18;;;;;;;27.71;19.15;98315.59;5039128;28;20399;-86
2021/04/18 11:06:43;;;;;;;12.85;7.90;;;;;;;26.16;20.61;98325.81;5035584;28;20040;-86
2021/04/18 11:09:09;;;;;;;8.63;5.03;;;;;;;27.16;19.88;98323.38;5045550;28;20033;-85
2021/04/18 11:11:36;;;;;;;5.78;4.43;;;;;;;28.12;18.85;98325.94;5039617;28;20021;-85
2021/04/18 11:14:04;;;;;;;5.28;3.50;;;;;;;28.70;18.91;98321.47;5035532;28;20045;-85
2021/04/18 11:16:30;;;;;;;6.40;4.63;;;;;;;28.61;18.38;98319.34;5036481;28;20489;-85
2021/04/18 11:18:56;;;;;;;7.20;4.47;;;;;;;28.04;18.79;98314.91;5037424;28;20091;-85
2021/04/18 11:21:23;;;;;;;5.47;3.83;;;;;;;27.83;18.51;98321.22;5039237;28;20037;-86
2021/04/18 11:23:53;;;;;;;6.13;4.05;;;;;;;28.34;18.45;98315.47;5035987;28;20033;-85
2021/04/18 11:26:20;;;;;;;6.97;4.18;;;;;;;28.51;17.92;98319.72;5047872;28;20039;-85
2021/04/18 11:28:49;;;;;;;6.10;4.05;;;;;;;28.80;18.02;98314.59;5037189;28;20037;-86